Time;durP1;ratioP1;P1;durP2;ratioP2;P2;SDS_P1;SDS_P2;PMS_P1;PMS_P2;Temp;Humidity;BMP_temperature;BMP_pressure;BME280_temperature;BME280_humidity;BME280_pressure;Samples;Min_cycle;Max_cycle;Signal;HPM_P1;HPM_P2
2023/10/23 00:00:05;;;;;;;7.07;4.03;;;;;;;-148.15;100.00;61821.78;4953860;28;20345;-92
2023/10/23 00:02:30;;;;;;;4.27;3.77;;;;;;;-148.15;100.00;61821.78;4952984;28;20042;-92
2023/10/23 00:04:57;;;;;;;5.05;4.30;;;;;;;-148.15;100.00;61821.78;4954674;28;20030;-93
2023/10/23 00:07:22;;;;;;;7.57;3.77;;;;;;;-148.15;100.00;61821.78;4973486;28;20402;-92
2023/10/23 00:09:47;;;;;;;5.05;3.47;;;;;;;-148.15;100.00;61821.78;4964525;28;20040;-92
2023/10/23 00:12:13;;;;;;;7.27;3.93;;;;;;;-148.15;100.00;61821.78;4952763;29;20027;-93
2023/10/23 00:14:38;;;;;;;5.37;3.50;;;;;;;-148.15;100.00;61821.78;4957010;28;20150;-93
2023/10/23 00:17:03;;;;;;;5.10;3.70;;;;;;;-148.15;100.00;61821.78;4957115;29;20042;-92
2023/10/23 00:19:52;;;;;;;5.53;4.03;;;;;;;-148.15;100.00;61821.78;4968485;28;20387;-93
2023/10/23 00:22:18;;;;;;;6.72;3.90;;;;;;;-148.15;100.00;61821.78;4969585;29;20031;-91
2023/10/23 00:24:43;;;;;;;7.23;3.90;;;;;;;-148.15;100.00;61821.78;4973888;28;20055;-91
2023/10/23 00:27:08;;;;;;;7.87;4.53;;;;;;;-148.15;100.00;61821.78;4960745;29;20027;-92
2023/10/23 00:29:33;;;;;;;9.13;4.17;;;;;;;-148.15;100.00;61821.78;4961752;29;20027;-92
2023/10/23 00:31:59;;;;;;;5.97;3.83;;;;;;;-148.15;100.00;61821.78;4961229;28;20078;-91
2023/10/23 00:34:24;;;;;;;11.00;4.07;;;;;;;-148.15;100.00;61821.78;4954166;28;20094;-92
2023/10/23 00:36:49;;;;;;;5.27;3.80;;;;;;;-148.15;100.00;61821.78;4952895;29;20024;-93
2023/10/23 00:39:15;;;;;;;5.63;4.00;;;;;;;-148.15;100.00;61821.78;4950650;28;20023;-92
2023/10/23 00:41:42;;;;;;;5.37;3.93;;;;;;;-148.15;100.00;61821.78;4951311;28;20542;-92
2023/10/23 00:44:07;;;;;;;5.55;4.18;;;;;;;-148.15;100.00;61821.78;4952836;28;20035;-91
2023/10/23 00:46:33;;;;;;;9.30;4.60;;;;;;;-148.15;100.00;61821.78;4938964;28;20026;-92
2023/10/23 00:48:59;;;;;;;9.73;4.73;;;;;;;-148.15;100.00;61821.78;4953389;28;20035;-93
2023/10/23 00:51:25;;;;;;;8.55;4.57;;;;;;;-148.15;100.00;61821.78;4952987;28;20034;-93
2023/10/23 00:53:51;;;;;;;10.15;4.78;;;;;;;-148.15;100.00;61821.78;4949095;29;20024;-92
2023/10/23 00:56:18;;;;;;;9.13;4.73;;;;;;;-148.15;100.00;61821.78;4945828;29;20039;-93
2023/10/23 00:58:44;;;;;;;7.83;4.50;;;;;;;-148.15;100.00;61821.78;4953557;29;20303;-93
2023/10/23 01:01:11;;;;;;;7.15;4.65;;;;;;;-148.15;100.00;61821.78;4952393;28;20050;-92
2023/10/23 01:03:38;;;;;;;9.93;4.90;;;;;;;-148.15;100.00;61821.78;4945817;29;20034;-93
2023/10/23 01:06:03;;;;;;;7.60;4.60;;;;;;;-148.15;100.00;61821.78;4941944;28;20503;-93
2023/10/23 01:08:30;;;;;;;8.57;4.33;;;;;;;-148.15;100.00;61821.78;4953505;28;20282;-92
2023/10/23 01:10:58;;;;;;;8.48;4.65;;;;;;;-148.15;100.00;61821.78;4952299;28;20518;-92
2023/10/23 01:13:25;;;;;;;7.37;4.67;;;;;;;-148.15;100.00;61821.78;4940541;28;20038;-92
2023/10/23 01:15:51;;;;;;;10.20;5.10;;;;;;;-148.15;100.00;61821.78;4953256;29;20322;-93
2023/10/23 01:18:16;;;;;;;8.45;4.60;;;;;;;-148.15;100.00;61821.78;4935945;29;20117;-92
2023/10/23 01:20:41;;;;;;;9.67;5.13;;;;;;;-148.15;100.00;61821.78;4951570;28;20099;-93
2023/10/23 01:23:08;;;;;;;11.63;4.77;;;;;;;-148.15;100.00;61821.78;4957333;29;20024;-92
2023/10/23 01:25:33;;;;;;;9.60;5.23;;;;;;;-148.15;100.00;61821.78;4957335;28;20283;-92
2023/10/23 01:27:59;;;;;;;9.38;4.45;;;;;;;-148.15;100.00;61821.78;4940019;29;20075;-95
2023/10/23 01:30:24;;;;;;;11.17;4.53;;;;;;;-148.15;100.00;61821.78;4919267;29;20576;-92
2023/10/23 01:32:49;;;;;;;13.90;5.07;;;;;;;-148.15;100.00;61821.78;4939373;29;20361;-93
2023/10/23 01:35:15;;;;;;;13.23;5.10;;;;;;;-148.15;100.00;61821.78;4955426;29;20031;-94
2023/10/23 01:37:45;;;;;;;12.13;5.28;;;;;;;-148.15;100.00;61821.78;4954798;28;20031;-94
2023/10/23 01:40:11;;;;;;;9.73;4.97;;;;;;;-148.15;100.00;61821.78;4957231;29;20027;-94
2023/10/23 01:42:36;;;;;;;11.20;4.68;;;;;;;-148.15;100.00;61821.78;4960127;28;20566;-95
2023/10/23 01:45:02;;;;;;;12.70;4.97;;;;;;;-148.15;100.00;61821.78;4959101;28;20154;-93
2023/10/23 01:47:27;;;;;;;7.83;4.50;;;;;;;-148.15;100.00;61821.78;4960764;29;20279;-94
2023/10/23 01:49:53;;;;;;;9.23;4.63;;;;;;;-148.15;100.00;61821.78;4969217;28;20027;-94
2023/10/23 01:52:19;;;;;;;10.93;4.93;;;;;;;-148.15;100.00;61821.78;4969651;28;20038;-94
2023/10/23 01:54:44;;;;;;;15.50;5.33;;;;;;;-148.15;100.00;61821.78;4972022;28;20043;-94
2023/10/23 01:57:10;;;;;;;8.97;4.50;;;;;;;-148.15;100.00;61821.78;4966540;29;20290;-94
2023/10/23 01:59:36;;;;;;;8.52;4.85;;;;;;;-148.15;100.00;61821.78;4966712;28;20042;-94
2023/10/23 02:02:02;;;;;;;11.93;4.97;;;;;;;-148.15;100.00;61821.78;4970614;28;20106;-94
2023/10/23 02:04:28;;;;;;;12.63;4.93;;;;;;;-148.15;100.00;61821.78;4967775;28;20327;-94
2023/10/23 02:06:53;;;;;;;10.93;5.10;;;;;;;-148.15;100.00;61821.78;4967299;28;20046;-95
2023/10/23 02:09:18;;;;;;;9.43;4.80;;;;;;;-148.15;100.00;61821.78;4966957;28;20062;-94
2023/10/23 02:11:44;;;;;;;9.87;4.90;;;;;;;-148.15;100.00;61821.78;4961285;28;20032;-94
2023/10/23 02:14:10;;;;;;;9.88;4.78;;;;;;;-148.15;100.00;61821.78;4970375;29;20026;-94
2023/10/23 02:16:35;;;;;;;11.57;5.10;;;;;;;-148.15;100.00;61821.78;4977089;28;20122;-94
2023/10/23 02:19:00;;;;;;;11.83;4.23;;;;;;;-148.15;100.00;61821.78;4978923;28;20008;-94
2023/10/23 02:21:25;;;;;;;17.53;5.53;;;;;;;-148.15;100.00;61821.78;4972675;29;20033;-94
2023/10/23 02:23:51;;;;;;;7.67;4.80;;;;;;;-148.15;100.00;61821.78;4978815;28;20361;-93
2023/10/23 02:26:17;;;;;;;10.60;4.80;;;;;;;-148.15;100.00;61821.78;4981642;28;20042;-94
2023/10/23 02:28:42;;;;;;;15.45;5.22;;;;;;;-148.15;100.00;61821.78;4978238;28;20030;-94
2023/10/23 02:31:07;;;;;;;8.23;4.70;;;;;;;-148.15;100.00;61821.78;4978657;28;20035;-94
2023/10/23 02:33:43;;;;;;;10.20;4.87;;;;;;;-148.15;100.00;61821.78;4973796;28;20186;-93
2023/10/23 02:36:09;;;;;;;9.90;4.45;;;;;;;-148.15;100.00;61821.78;4971465;29;20054;-93
2023/10/23 02:38:34;;;;;;;12.82;4.78;;;;;;;-148.15;100.00;61821.78;4977600;28;20016;-94
2023/10/23 02:41:00;;;;;;;10.90;4.83;;;;;;;-148.15;100.00;61821.78;4994846;28;20025;-94
2023/10/23 02:43:26;;;;;;;11.10;5.03;;;;;;;-148.15;100.00;61821.78;4981399;28;20047;-94
2023/10/23 02:45:51;;;;;;;12.45;4.93;;;;;;;-148.15;100.00;61821.78;4982447;28;20082;-93
2023/10/23 02:48:30;;;;;;;9.47;4.70;;;;;;;-148.15;100.00;61821.78;4973925;28;20019;-94
2023/10/23 02:50:56;;;;;;;10.23;4.85;;;;;;;-148.15;100.00;61821.78;4978546;29;20046;-93
2023/10/23 02:53:22;;;;;;;8.40;5.18;;;;;;;-148.15;100.00;61821.78;4972581;28;20055;-94
2023/10/23 02:55:56;;;;;;;9.40;5.13;;;;;;;-148.15;100.00;61821.78;4968506;28;20038;-94
2023/10/23 02:58:21;;;;;;;7.75;4.65;;;;;;;-148.15;100.00;61821.78;4979775;29;20046;-93
2023/10/23 03:00:47;;;;;;;11.47;4.77;;;;;;;-148.15;100.00;61821.78;4978575;28;20054;-93
2023/10/23 03:03:12;;;;;;;6.97;4.50;;;;;;;-148.15;100.00;61821.78;4978732;28;20058;-93
2023/10/23 03:05:38;;;;;;;11.97;4.50;;;;;;;-148.15;100.00;61821.78;4979090;28;20043;-94
2023/10/23 03:08:04;;;;;;;14.55;5.15;;;;;;;-148.15;100.00;61821.78;4970308;28;20422;-94
2023/10/23 03:10:30;;;;;;;10.63;4.63;;;;;;;-148.15;100.00;61821.78;4976613;28;20024;-93
2023/10/23 03:12:56;;;;;;;11.40;5.05;;;;;;;-148.15;100.00;61821.78;4975673;28;20050;-93
2023/10/23 03:15:21;;;;;;;10.43;4.70;;;;;;;-148.15;100.00;61821.78;4973849;29;20032;-93
2023/10/23 03:17:46;;;;;;;9.33;4.63;;;;;;;-148.15;100.00;61821.78;4973324;28;20027;-93
2023/10/23 03:20:12;;;;;;;8.50;4.20;;;;;;;-148.15;100.00;61821.78;4974309;28;20035;-93
2023/10/23 03:22:38;;;;;;;10.80;4.70;;;;;;;-148.15;100.00;61821.78;4970721;28;20023;-94
2023/10/23 03:25:04;;;;;;;11.23;4.50;;;;;;;-148.15;100.00;61821.78;4977189;29;20035;-94
2023/10/23 03:27:30;;;;;;;13.23;4.50;;;;;;;-148.15;100.00;61821.78;4974948;29;20103;-93
2023/10/23 03:29:55;;;;;;;6.93;4.40;;;;;;;-148.15;100.00;61821.78;4956949;29;20011;-93
2023/10/23 03:32:21;;;;;;;7.45;4.55;;;;;;;-148.15;100.00;61821.78;4965427;28;20063;-94
2023/10/23 03:34:46;;;;;;;10.77;4.50;;;;;;;-148.15;100.00;61821.78;4964726;29;20058;-92
2023/10/23 03:37:12;;;;;;;8.43;4.55;;;;;;;-148.15;100.00;61821.78;4949229;28;20046;-94
2023/10/23 03:39:37;;;;;;;6.93;4.37;;;;;;;-148.15;100.00;61821.78;4961452;28;20505;-93
2023/10/23 03:42:03;;;;;;;9.23;4.33;;;;;;;-148.15;100.00;61821.78;4963292;28;20046;-93
2023/10/23 03:44:28;;;;;;;11.30;4.73;;;;;;;-148.15;100.00;61821.78;4968577;29;20034;-93
2023/10/23 03:46:53;;;;;;;9.63;4.70;;;;;;;-148.15;100.00;61821.78;4956129;29;20139;-94
2023/10/23 03:49:19;;;;;;;10.70;4.30;;;;;;;-148.15;100.00;61821.78;4946526;29;20028;-93
2023/10/23 03:51:45;;;;;;;10.37;4.50;;;;;;;-148.15;100.00;61821.78;4950756;29;20027;-93
2023/10/23 03:54:11;;;;;;;9.55;4.50;;;;;;;-148.15;100.00;61821.78;4966252;28;20038;-93
2023/10/23 03:56:36;;;;;;;10.27;4.23;;;;;;;-148.15;100.00;61821.78;4956012;29;20445;-92
2023/10/23 03:59:02;;;;;;;9.83;4.50;;;;;;;-148.15;100.00;61821.78;4960905;29;20373;-94
2023/10/23 04:01:36;;;;;;;6.78;4.40;;;;;;;-148.15;100.00;61821.78;4959438;29;20023;-94
2023/10/23 04:04:02;;;;;;;7.50;4.50;;;;;;;-148.15;100.00;61821.78;4954253;29;20031;-94
2023/10/23 04:06:27;;;;;;;10.75;4.75;;;;;;;-148.15;100.00;61821.78;4950003;29;20359;-93
2023/10/23 04:08:53;;;;;;;9.63;4.60;;;;;;;-148.15;100.00;61821.78;4963578;28;20034;-93
2023/10/23 04:11:18;;;;;;;12.50;4.53;;;;;;;-148.15;100.00;61821.78;4963407;28;20031;-93
2023/10/23 04:13:43;;;;;;;11.47;4.67;;;;;;;-148.15;100.00;61821.78;4965946;28;20062;-87
2023/10/23 04:16:09;;;;;;;9.90;4.90;;;;;;;-148.15;100.00;61821.78;4957175;28;20028;-88
2023/10/23 04:18:34;;;;;;;8.02;4.53;;;;;;;-148.15;100.00;61821.78;4941567;29;20039;-89
2023/10/23 04:21:08;;;;;;;11.67;4.50;;;;;;;-148.15;100.00;61821.78;4935188;29;20023;-90
2023/10/23 04:23:35;;;;;;;8.75;4.28;;;;;;;-148.15;100.00;61821.78;4949576;28;20050;-89
2023/10/23 04:26:00;;;;;;;9.73;4.20;;;;;;;-148.15;100.00;61821.78;4948155;29;20027;-87
2023/10/23 04:28:26;;;;;;;9.47;4.80;;;;;;;-148.15;100.00;61821.78;4940408;28;20046;-89
2023/10/23 04:30:51;;;;;;;9.90;4.32;;;;;;;-148.15;100.00;61821.78;4950388;28;20031;-88
2023/10/23 04:33:21;;;;;;;6.87;4.27;;;;;;;-148.15;100.00;61821.78;4950453;28;20529;-88
2023/10/23 04:35:50;;;;;;;12.70;4.32;;;;;;;-148.15;100.00;61821.78;4952906;29;20062;-88
2023/10/23 04:38:16;;;;;;;8.75;4.65;;;;;;;-148.15;100.00;61821.78;4953636;29;20479;-88
2023/10/23 04:40:44;;;;;;;7.97;3.90;;;;;;;-148.15;100.00;61821.78;4953401;28;20015;-88
2023/10/23 04:43:12;;;;;;;12.75;4.00;;;;;;;-148.15;100.00;61821.78;4952545;29;20037;-88
2023/10/23 04:45:37;;;;;;;10.38;4.28;;;;;;;-148.15;100.00;61821.78;4952572;29;20030;-88
2023/10/23 04:48:04;;;;;;;6.27;4.10;;;;;;;-148.15;100.00;61821.78;4961719;28;20039;-89
2023/10/23 04:50:33;;;;;;;7.50;4.55;;;;;;;-148.15;100.00;61821.78;4974369;28;20020;-89
2023/10/23 04:53:00;;;;;;;7.57;4.15;;;;;;;-148.15;100.00;61821.78;4973526;29;20038;-89
2023/10/23 04:55:26;;;;;;;7.37;4.13;;;;;;;-148.15;100.00;61821.78;4970255;29;20092;-86
2023/10/23 04:57:51;;;;;;;7.90;3.80;;;;;;;-148.15;100.00;61821.78;4966499;28;20301;-86
2023/10/23 05:00:19;;;;;;;7.43;4.15;;;;;;;-148.15;100.00;61821.78;4969194;28;20031;-86
2023/10/23 05:02:45;;;;;;;9.90;4.03;;;;;;;-148.15;100.00;61821.78;4968426;29;20042;-87
2023/10/23 05:05:10;;;;;;;8.80;3.97;;;;;;;-148.15;100.00;61821.78;4971610;28;20294;-87
2023/10/23 05:07:36;;;;;;;9.10;4.10;;;;;;;-148.15;100.00;61821.78;4971221;28;20027;-87
2023/10/23 05:10:04;;;;;;;10.40;4.50;;;;;;;-148.15;100.00;61821.78;4954882;29;20122;-87
2023/10/23 05:12:29;;;;;;;9.25;4.57;;;;;;;-148.15;100.00;61821.78;4947127;29;20034;-86
2023/10/23 05:14:54;;;;;;;6.97;4.00;;;;;;;-148.15;100.00;61821.78;4952718;29;20390;-86
2023/10/23 05:17:21;;;;;;;8.27;3.97;;;;;;;-148.15;100.00;61821.78;4944708;28;20077;-88
2023/10/23 05:19:47;;;;;;;8.00;4.15;;;;;;;-148.15;100.00;61821.78;4952048;28;20028;-89
2023/10/23 05:22:12;;;;;;;8.30;3.85;;;;;;;-148.15;100.00;61821.78;4950953;29;21734;-90
2023/10/23 05:24:38;;;;;;;5.90;3.93;;;;;;;-148.15;100.00;61821.78;4935902;28;20063;-91
2023/10/23 05:27:03;;;;;;;8.60;3.97;;;;;;;-148.15;100.00;61821.78;4951719;28;20066;-90
2023/10/23 05:29:28;;;;;;;7.50;3.80;;;;;;;-148.15;100.00;61821.78;4951868;29;20035;-90
2023/10/23 05:31:54;;;;;;;9.03;3.80;;;;;;;-148.15;100.00;61821.78;4953353;29;20027;-90
2023/10/23 05:34:19;;;;;;;8.10;3.42;;;;;;;-148.15;100.00;61821.78;4953269;29;20445;-87
2023/10/23 05:36:44;;;;;;;11.77;3.77;;;;;;;-148.15;100.00;61821.78;4949870;28;20024;-92
2023/10/23 05:39:10;;;;;;;8.63;3.50;;;;;;;-148.15;100.00;61821.78;4934504;29;20114;-92
2023/10/23 05:41:35;;;;;;;7.23;3.77;;;;;;;-148.15;100.00;61821.78;4946922;28;20031;-93
2023/10/23 05:44:00;;;;;;;7.57;3.60;;;;;;;-148.15;100.00;61821.78;4955306;28;20038;-94
2023/10/23 05:46:26;;;;;;;8.57;3.53;;;;;;;-148.15;100.00;61821.78;4952212;28;20040;-94
2023/10/23 05:48:51;;;;;;;6.90;3.58;;;;;;;-148.15;100.00;61821.78;4953381;28;20118;-95
2023/10/23 05:51:19;;;;;;;7.03;3.43;;;;;;;-148.15;100.00;61821.78;4953154;28;20070;-94
2023/10/23 05:53:45;;;;;;;8.90;3.97;;;;;;;-148.15;100.00;61821.78;4952335;28;20035;-94
2023/10/23 05:56:19;;;;;;;7.32;3.75;;;;;;;-148.15;100.00;61821.78;4951294;28;20057;-94
2023/10/23 05:58:46;;;;;;;4.37;3.20;;;;;;;-148.15;100.00;61821.78;4953528;28;20050;-95
2023/10/23 06:01:27;;;;;;;10.63;3.78;;;;;;;-148.15;100.00;61821.78;4957416;29;20086;-94
2023/10/23 06:03:53;;;;;;;5.40;3.25;;;;;;;-148.15;100.00;61821.78;4950926;28;20056;-94
2023/10/23 06:06:54;;;;;;;6.95;3.25;;;;;;;-148.15;100.00;61821.78;4954517;28;20454;-93
2023/10/23 06:09:19;;;;;;;8.68;3.28;;;;;;;-148.15;100.00;61821.78;4932773;28;20039;-90
2023/10/23 06:11:44;;;;;;;8.63;3.10;;;;;;;-148.15;100.00;61821.78;4954774;28;20395;-89
2023/10/23 06:17:19;;;;;;;4.13;2.45;;;;;;;-148.15;100.00;61821.78;4946347;29;20135;-91
2023/10/23 06:19:45;;;;;;;23.58;3.45;;;;;;;-148.15;100.00;61821.78;4987140;23;20148;-87
2023/10/23 06:22:10;;;;;;;7.40;3.40;;;;;;;-148.15;100.00;61821.78;4983848;28;20547;-87
2023/10/23 06:24:35;;;;;;;5.67;3.33;;;;;;;-148.15;100.00;61821.78;4973896;28;20042;-87
2023/10/23 06:27:01;;;;;;;8.67;4.10;;;;;;;-148.15;100.00;61821.78;4973919;28;20114;-86
2023/10/23 06:29:26;;;;;;;8.03;3.40;;;;;;;-148.15;100.00;61821.78;4980036;28;20031;-87
2023/10/23 06:31:51;;;;;;;14.13;3.97;;;;;;;-148.15;100.00;61821.78;4995352;28;20026;-89
2023/10/23 06:34:17;;;;;;;19.67;4.40;;;;;;;-148.15;100.00;61821.78;4993750;28;20054;-86
2023/10/23 06:36:43;;;;;;;10.90;4.00;;;;;;;-148.15;100.00;61821.78;4975558;28;20069;-86
2023/10/23 06:39:16;;;;;;;10.68;4.40;;;;;;;-148.15;100.00;61821.78;4973698;28;20029;-87
2023/10/23 06:41:41;;;;;;;9.90;4.70;;;;;;;-148.15;100.00;61821.78;4975152;28;20026;-86
2023/10/23 06:44:07;;;;;;;12.17;4.40;;;;;;;-148.15;100.00;61821.78;4985393;28;20153;-86
2023/10/23 06:46:32;;;;;;;16.17;4.23;;;;;;;-148.15;100.00;61821.78;4973032;28;20494;-88
2023/10/23 06:48:57;;;;;;;6.82;4.38;;;;;;;-148.15;100.00;61821.78;4972978;28;20116;-89
2023/10/23 06:51:23;;;;;;;7.37;4.20;;;;;;;-148.15;100.00;61821.78;4971720;28;20066;-88
2023/10/23 06:53:51;;;;;;;10.73;4.10;;;;;;;-148.15;100.00;61821.78;4974458;28;20447;-89
2023/10/23 06:56:16;;;;;;;9.63;4.45;;;;;;;-148.15;100.00;61821.78;4972992;28;20490;-88
2023/10/23 06:58:42;;;;;;;8.47;4.50;;;;;;;-148.15;100.00;61821.78;4960138;28;20034;-88
2023/10/23 07:01:08;;;;;;;9.23;4.97;;;;;;;-148.15;100.00;61821.78;4976209;28;20037;-89
2023/10/23 07:03:36;;;;;;;10.77;4.93;;;;;;;-148.15;100.00;61821.78;4976411;28;20026;-89
2023/10/23 07:06:06;;;;;;;9.55;4.93;;;;;;;-148.15;100.00;61821.78;4973073;28;20026;-89
2023/10/23 07:08:32;;;;;;;16.80;5.88;;;;;;;-148.15;100.00;61821.78;4971206;28;20499;-89
2023/10/23 07:10:58;;;;;;;13.50;5.67;;;;;;;-148.15;100.00;61821.78;4973536;28;20154;-87
2023/10/23 07:13:23;;;;;;;10.68;6.20;;;;;;;-148.15;100.00;61821.78;4971514;28;20023;-87
2023/10/23 07:15:49;;;;;;;15.47;6.53;;;;;;;-148.15;100.00;61821.78;4972730;28;20490;-89
2023/10/23 07:18:15;;;;;;;12.18;5.97;;;;;;;-148.15;100.00;61821.78;4974050;28;20023;-88
2023/10/23 07:20:40;;;;;;;10.57;6.80;;;;;;;-148.15;100.00;61821.78;4970793;28;20041;-86
2023/10/23 07:23:05;;;;;;;13.37;7.00;;;;;;;-148.15;100.00;61821.78;4956737;28;20026;-87
2023/10/23 07:25:31;;;;;;;13.53;6.40;;;;;;;-148.15;100.00;61821.78;4970703;28;20110;-88
2023/10/23 07:27:56;;;;;;;18.70;7.20;;;;;;;-148.15;100.00;61821.78;4973629;28;20030;-88
2023/10/23 07:30:24;;;;;;;17.57;8.70;;;;;;;-148.15;100.00;61821.78;4980179;28;20038;-89
2023/10/23 07:32:49;;;;;;;14.77;8.15;;;;;;;-148.15;100.00;61821.78;4956713;28;20100;-89
2023/10/23 07:35:15;;;;;;;18.98;8.68;;;;;;;-148.15;100.00;61821.78;4955634;28;20486;-91
2023/10/23 07:37:40;;;;;;;19.27;9.03;;;;;;;-148.15;100.00;61821.78;4970493;28;20398;-87
2023/10/23 07:40:06;;;;;;;24.73;10.17;;;;;;;-148.15;100.00;61821.78;4971626;28;20038;-87
2023/10/23 07:42:32;;;;;;;20.75;9.70;;;;;;;-148.15;100.00;61821.78;4973582;28;20177;-88
2023/10/23 07:44:58;;;;;;;25.35;9.80;;;;;;;-148.15;100.00;61821.78;4960166;28;20395;-88
2023/10/23 07:47:24;;;;;;;28.08;9.68;;;;;;;-148.15;100.00;61821.78;4982653;28;20065;-88
2023/10/23 07:49:49;;;;;;;20.10;11.03;;;;;;;-148.15;100.00;61821.78;4978667;28;20058;-88
2023/10/23 07:52:14;;;;;;;24.47;11.80;;;;;;;-148.15;100.00;61821.78;4956266;28;20034;-89
2023/10/23 07:54:39;;;;;;;25.47;10.97;;;;;;;-148.15;100.00;61821.78;4973522;28;20019;-89
2023/10/23 07:57:05;;;;;;;24.00;11.20;;;;;;;-148.15;100.00;61821.78;4973141;28;20057;-88
2023/10/23 07:59:31;;;;;;;25.10;11.73;;;;;;;-148.15;100.00;61821.78;4981100;28;20034;-89
2023/10/23 08:01:56;;;;;;;26.95;10.82;;;;;;;-148.15;100.00;61821.78;4972504;28;20033;-89
2023/10/23 08:04:22;;;;;;;24.37;11.17;;;;;;;-148.15;100.00;61821.78;4972148;28;20023;-89
2023/10/23 08:06:47;;;;;;;26.65;11.13;;;;;;;-148.15;100.00;61821.78;4971873;28;20121;-90
2023/10/23 08:09:12;;;;;;;29.00;12.73;;;;;;;-148.15;100.00;61821.78;4977719;28;20089;-88
2023/10/23 08:11:38;;;;;;;25.53;11.83;;;;;;;-148.15;100.00;61821.78;4962555;28;20038;-86
2023/10/23 08:14:04;;;;;;;27.35;13.18;;;;;;;-148.15;100.00;61821.78;4975935;28;20089;-86
2023/10/23 08:16:30;;;;;;;31.60;12.07;;;;;;;-148.15;100.00;61821.78;4963643;28;20542;-85
2023/10/23 08:18:57;;;;;;;25.40;12.00;;;;;;;-148.15;100.00;61821.78;4971572;28;20031;-86
2023/10/23 08:21:25;;;;;;;29.35;11.60;;;;;;;-148.15;100.00;61821.78;4966514;28;20015;-87
2023/10/23 08:23:54;;;;;;;31.30;12.18;;;;;;;-148.15;100.00;61821.78;4972227;28;20023;-86
2023/10/23 08:26:19;;;;;;;23.53;11.73;;;;;;;-148.15;100.00;61821.78;4963709;28;20390;-86
2023/10/23 08:28:48;;;;;;;27.03;11.57;;;;;;;-148.15;100.00;61821.78;4974673;28;20290;-87
2023/10/23 08:31:20;;;;;;;26.88;11.93;;;;;;;-148.15;100.00;61821.78;5146389;23;20042;-87
2023/10/23 08:33:50;;;;;;;29.35;12.80;;;;;;;-148.15;100.00;61821.78;4999487;28;20025;-86
2023/10/23 08:36:26;;;;;;;21.03;11.37;;;;;;;-148.15;100.00;61821.78;5003042;28;20030;-91
2023/10/23 08:38:51;;;;;;;23.53;11.20;;;;;;;-148.15;100.00;61821.78;4985752;28;20362;-90
2023/10/23 08:41:17;;;;;;;26.38;11.40;;;;;;;-148.15;100.00;61821.78;5006917;28;20018;-89
2023/10/23 08:43:43;;;;;;;22.43;11.27;;;;;;;-148.15;100.00;61821.78;5004575;28;20060;-89
2023/10/23 08:46:09;;;;;;;24.40;10.93;;;;;;;-148.15;100.00;61821.78;5011512;28;20037;-89
2023/10/23 08:48:36;;;;;;;28.70;10.82;;;;;;;-148.15;100.00;61821.78;4993262;28;20064;-88
2023/10/23 08:51:02;;;;;;;21.73;10.33;;;;;;;-148.15;100.00;61821.78;5004903;28;20041;-89
2023/10/23 08:53:33;;;;;;;31.63;11.07;;;;;;;-148.15;100.00;61821.78;5001694;28;21153;-89
2023/10/23 08:56:03;;;;;;;26.50;10.73;;;;;;;-148.15;100.00;61821.78;4999774;28;20137;-89
2023/10/23 08:58:32;;;;;;;18.75;9.27;;;;;;;-148.15;100.00;61821.78;5000337;28;20038;-88
2023/10/23 09:00:57;;;;;;;24.90;10.00;;;;;;;-148.15;100.00;61821.78;5001103;28;20038;-89
2023/10/23 09:03:26;;;;;;;23.90;10.07;;;;;;;-148.15;100.00;61821.78;5000147;28;20026;-94
2023/10/23 09:05:52;;;;;;;20.75;9.68;;;;;;;-148.15;100.00;61821.78;5002847;28;20022;-92
2023/10/23 09:08:18;;;;;;;22.27;9.10;;;;;;;-148.15;100.00;61821.78;5006537;28;20028;-92
2023/10/23 09:11:03;;;;;;;21.23;9.82;;;;;;;-148.15;100.00;61821.78;4987213;28;20108;-89
2023/10/23 09:13:34;;;;;;;17.63;8.27;;;;;;;-148.15;100.00;61821.78;4988732;28;20065;-91
2023/10/23 09:15:59;;;;;;;17.93;7.97;;;;;;;-148.15;100.00;61821.78;5009961;28;20300;-89
2023/10/23 09:21:30;;;;;;;21.23;7.82;;;;;;;-148.15;100.00;61821.78;4953131;28;20541;-91
2023/10/23 09:24:03;;;;;;;17.00;7.80;;;;;;;-148.15;100.00;61821.78;4986120;28;20466;-91
2023/10/23 09:26:29;;;;;;;15.37;7.47;;;;;;;-148.15;100.00;61821.78;4990425;28;20296;-91
2023/10/23 09:28:55;;;;;;;14.73;7.32;;;;;;;-148.15;100.00;61821.78;4992564;28;20069;-91
2023/10/23 09:31:24;;;;;;;13.20;6.65;;;;;;;-148.15;100.00;61821.78;4991182;28;20169;-91
2023/10/23 09:34:24;;;;;;;16.38;7.13;;;;;;;-148.15;100.00;61821.78;5008604;28;20539;-91
2023/10/23 09:36:56;;;;;;;16.73;7.80;;;;;;;-148.15;100.00;61821.78;4968063;28;20077;-90
2023/10/23 09:39:22;;;;;;;15.25;7.88;;;;;;;-148.15;100.00;61821.78;5000674;28;20122;-89
2023/10/23 09:41:52;;;;;;;16.17;7.68;;;;;;;-148.15;100.00;61821.78;4999342;28;20046;-90
2023/10/23 09:44:17;;;;;;;18.63;8.70;;;;;;;-148.15;100.00;61821.78;4997654;28;20048;-92
2023/10/23 09:46:43;;;;;;;16.57;8.00;;;;;;;-148.15;100.00;61821.78;5010807;28;20026;-92
2023/10/23 09:52:26;;;;;;;19.77;7.72;;;;;;;-148.15;100.00;61821.78;5323817;22;20054;-90
2023/10/23 09:55:08;;;;;;;15.95;7.80;;;;;;;-148.15;100.00;61821.78;4984670;28;20034;-88
2023/10/23 09:57:38;;;;;;;18.77;7.80;;;;;;;-148.15;100.00;61821.78;4987637;28;20027;-88
2023/10/23 10:00:26;;;;;;;16.43;6.37;;;;;;;-148.15;100.00;61821.78;4976563;28;20568;-89
2023/10/23 10:03:05;;;;;;;18.35;6.13;;;;;;;-148.15;100.00;61821.78;4976909;28;20065;-88
2023/10/23 10:06:09;;;;;;;15.45;6.60;;;;;;;-148.15;100.00;61821.78;4984776;28;20073;-87
2023/10/23 10:08:38;;;;;;;13.60;6.05;;;;;;;-148.15;100.00;61821.78;4979421;28;20034;-87
2023/10/23 10:14:27;;;;;;;12.43;5.20;;;;;;;-148.15;100.00;61821.78;4978714;23;20062;-88
2023/10/23 10:17:08;;;;;;;;;;;;;;;;;;;;;
2023/10/23 10:19:46;;;;;;;16.08;4.30;;;;;;;-148.15;100.00;61821.78;4954375;28;20912;-86
2023/10/23 10:22:29;;;;;;;11.43;4.53;;;;;;;-148.15;100.00;61821.78;4929073;29;20634;-86
2023/10/23 10:24:55;;;;;;;12.07;4.28;;;;;;;-148.15;100.00;61821.78;4927609;29;20529;-86
2023/10/23 10:27:39;;;;;;;13.07;4.50;;;;;;;-148.15;100.00;61821.78;4950272;29;20420;-87
2023/10/23 10:30:40;;;;;;;13.48;4.40;;;;;;;-148.15;100.00;61821.78;4984537;23;20021;-88
2023/10/23 10:33:41;;;;;;;12.20;4.07;;;;;;;-148.15;100.00;61821.78;4973574;28;20057;-87
2023/10/23 10:36:41;;;;;;;11.07;4.32;;;;;;;-148.15;100.00;61821.78;4947576;28;20039;-87
2023/10/23 10:39:19;;;;;;;15.82;4.72;;;;;;;-148.15;100.00;61821.78;4952736;28;20042;-86
2023/10/23 10:41:46;;;;;;;12.25;3.95;;;;;;;-148.15;100.00;61821.78;4965278;28;20296;-87
2023/10/23 10:44:18;;;;;;;13.73;4.10;;;;;;;-148.15;100.00;61821.78;4970013;28;20453;-86
2023/10/23 10:46:54;;;;;;;14.27;3.57;;;;;;;-148.15;100.00;61821.78;4968584;28;20034;-87
2023/10/23 10:49:19;;;;;;;21.53;4.10;;;;;;;-148.15;100.00;61821.78;4972323;28;20294;-87
2023/10/23 10:51:47;;;;;;;11.23;3.83;;;;;;;-148.15;100.00;61821.78;4979021;28;20037;-87
2023/10/23 10:54:20;;;;;;;13.57;3.90;;;;;;;-148.15;100.00;61821.78;4951942;28;20124;-87
2023/10/23 10:56:46;;;;;;;19.70;4.37;;;;;;;-148.15;100.00;61821.78;4965964;28;20788;-87
2023/10/23 10:59:18;;;;;;;14.70;4.35;;;;;;;-148.15;100.00;61821.78;4969348;28;20023;-88
2023/10/23 11:02:02;;;;;;;11.20;3.97;;;;;;;-148.15;100.00;61821.78;4952151;28;20121;-88
2023/10/23 11:04:27;;;;;;;15.95;3.60;;;;;;;-148.15;100.00;61821.78;4964437;28;20031;-88
2023/10/23 11:06:52;;;;;;;14.30;3.53;;;;;;;-148.15;100.00;61821.78;4944910;28;20025;-88
2023/10/23 11:09:20;;;;;;;8.07;3.50;;;;;;;-148.15;100.00;61821.78;4972399;28;20039;-88
2023/10/23 11:11:45;;;;;;;11.40;3.42;;;;;;;-148.15;100.00;61821.78;4957198;28;20089;-88
2023/10/23 11:14:11;;;;;;;12.57;3.53;;;;;;;-148.15;100.00;61821.78;4973250;28;20134;-88
2023/10/23 11:16:36;;;;;;;13.57;3.27;;;;;;;-148.15;100.00;61821.78;4951534;28;20037;-89
2023/10/23 11:19:02;;;;;;;9.75;3.53;;;;;;;-148.15;100.00;61821.78;4971134;28;20041;-87